createdAt,value
2018-08-24T00:00:37.044Z,20.60
2018-08-24T00:05:20.712Z,20.50
2018-08-24T00:10:04.414Z,20.40
2018-08-24T00:14:48.814Z,20.20
2018-08-24T00:19:32.549Z,20.00
2018-08-24T00:24:16.562Z,19.80
2018-08-24T00:29:00.246Z,19.70
2018-08-24T00:33:48.032Z,19.50
2018-08-24T00:38:31.858Z,19.40
2018-08-24T00:43:15.556Z,19.50
2018-08-24T00:47:59.248Z,19.60
2018-08-24T00:52:43.186Z,19.70
2018-08-24T00:57:26.823Z,19.90
2018-08-24T01:02:10.559Z,20.10
2018-08-24T01:06:54.203Z,20.10
2018-08-24T01:11:43.070Z,20.00
2018-08-24T01:16:32.002Z,20.00
2018-08-24T01:21:15.606Z,20.10
2018-08-24T01:25:59.584Z,20.00
2018-08-24T01:30:43.290Z,20.10
2018-08-24T01:35:26.976Z,20.00
2018-08-24T01:40:10.632Z,20.00
2018-08-24T01:44:54.316Z,19.90
2018-08-24T01:49:38.085Z,19.80
2018-08-24T01:54:21.780Z,19.70
2018-08-24T01:59:05.872Z,19.60
2018-08-24T02:03:49.966Z,19.60
2018-08-24T02:08:34.097Z,19.60
2018-08-24T02:13:23.100Z,19.60
2018-08-24T02:18:12.038Z,19.50
2018-08-24T02:22:59.193Z,19.40
2018-08-24T02:27:42.908Z,19.50
2018-08-24T02:32:27.078Z,19.80
2018-08-24T02:37:10.725Z,19.70
2018-08-24T02:41:54.425Z,19.60
2018-08-24T02:46:38.199Z,19.50
2018-08-24T02:51:21.908Z,19.60
2018-08-24T02:56:05.605Z,19.60
2018-08-24T03:00:50.266Z,19.70
2018-08-24T03:05:34.189Z,19.90
2018-08-24T03:10:17.878Z,20.00
2018-08-24T03:15:01.610Z,19.90
2018-08-24T03:19:45.579Z,20.00
2018-08-24T03:24:29.252Z,20.10
2018-08-24T03:29:13.042Z,20.30
2018-08-24T03:33:56.635Z,20.50
2018-08-24T03:38:40.342Z,20.70
2018-08-24T03:43:24.358Z,20.70
2018-08-24T03:48:08.214Z,20.80
2018-08-24T03:52:52.107Z,21.00
2018-08-24T03:57:35.800Z,21.10
2018-08-24T04:02:19.460Z,21.10
2018-08-24T04:07:03.150Z,21.10
2018-08-24T04:11:47.036Z,21.10
2018-08-24T04:16:35.002Z,21.20
2018-08-24T04:21:18.688Z,21.30
2018-08-24T04:26:02.431Z,21.30
2018-08-24T04:30:46.054Z,21.30
2018-08-24T04:35:29.690Z,21.40
2018-08-24T04:40:13.570Z,21.50
2018-08-24T04:44:57.303Z,21.70
2018-08-24T04:49:40.918Z,21.80
2018-08-24T04:54:24.674Z,21.90
2018-08-24T04:59:08.361Z,22.00
2018-08-24T05:03:52.119Z,22.10
2018-08-24T05:08:35.960Z,22.10
2018-08-24T05:13:19.653Z,22.20
2018-08-24T05:18:03.305Z,22.10
2018-08-24T05:22:47.292Z,22.20
2018-08-24T05:27:31.000Z,22.10
2018-08-24T05:32:14.668Z,22.10
2018-08-24T05:36:58.340Z,21.90
2018-08-24T05:41:42.234Z,21.90
2018-08-24T05:46:26.168Z,21.80
2018-08-24T05:51:13.634Z,21.70
2018-08-24T05:55:57.816Z,21.60
2018-08-24T06:00:45.428Z,21.50
2018-08-24T06:05:34.671Z,21.40
2018-08-24T06:10:19.716Z,21.40
2018-08-24T06:15:06.060Z,21.20
2018-08-24T06:19:50.380Z,21.10
2018-08-24T06:24:34.547Z,20.80
2018-08-24T06:29:21.847Z,20.80
2018-08-24T06:34:06.032Z,20.90
2018-08-24T06:38:50.126Z,21.00
2018-08-24T06:43:35.204Z,21.00
2018-08-24T06:48:20.135Z,21.20
2018-08-24T06:53:06.943Z,21.60
2018-08-24T06:57:53.015Z,22.60
2018-08-24T07:02:39.256Z,23.00
2018-08-24T07:07:25.607Z,23.60
2018-08-24T07:12:11.966Z,23.80
2018-08-24T07:17:00.989Z,23.50
2018-08-24T07:21:45.075Z,23.20
2018-08-24T07:26:28.931Z,23.60
2018-08-24T07:31:12.950Z,23.60
2018-08-24T07:35:57.813Z,23.40
2018-08-24T07:40:41.647Z,23.30
2018-08-24T07:45:25.548Z,22.90
2018-08-24T07:50:09.248Z,22.50
2018-08-24T07:54:52.956Z,22.40
2018-08-24T07:59:36.638Z,22.50
2018-08-24T08:04:20.430Z,22.90
2018-08-24T08:09:04.976Z,23.70
2018-08-24T08:13:48.685Z,24.40
2018-08-24T08:18:32.434Z,24.50
2018-08-24T08:23:16.416Z,24.50
2018-08-24T08:28:00.167Z,24.40
2018-08-24T08:32:44.025Z,24.60
2018-08-24T08:37:28.156Z,24.90
2018-08-24T08:42:12.560Z,25.20
2018-08-24T08:46:56.504Z,25.00
2018-08-24T08:51:40.379Z,25.00
2018-08-24T08:56:25.020Z,25.10
2018-08-24T09:01:08.875Z,25.40
2018-08-24T09:05:52.833Z,25.80
2018-08-24T09:10:39.891Z,26.10
2018-08-24T09:15:24.661Z,26.90
2018-08-24T09:20:14.813Z,27.40
2018-08-24T09:25:05.620Z,27.00
2018-08-24T09:29:50.550Z,26.70
2018-08-24T09:34:36.413Z,27.20
2018-08-24T09:39:24.897Z,27.70
2018-08-24T09:44:10.837Z,27.60
2018-08-24T09:49:01.716Z,27.50
2018-08-24T09:53:51.023Z,27.40
2018-08-24T09:58:35.315Z,26.90
2018-08-24T10:03:25.219Z,26.40
2018-08-24T10:08:14.397Z,26.40
2018-08-24T10:12:58.411Z,27.00
2018-08-24T10:17:45.755Z,27.20
2018-08-24T10:22:29.532Z,27.50
2018-08-24T10:27:13.188Z,28.40
2018-08-24T10:31:56.864Z,29.00
2018-08-24T10:36:40.627Z,29.00
2018-08-24T10:41:24.395Z,29.00
2018-08-24T10:46:08.136Z,29.00
2018-08-24T10:50:51.837Z,28.80
2018-08-24T10:55:35.670Z,28.90
2018-08-24T11:00:19.369Z,29.70
2018-08-24T11:05:03.124Z,29.20
2018-08-24T11:09:46.917Z,29.60
2018-08-24T11:14:30.584Z,30.00
2018-08-24T11:19:14.291Z,29.60
2018-08-24T11:23:58.200Z,29.00
2018-08-24T11:28:41.836Z,28.40
2018-08-24T11:33:25.541Z,27.60
2018-08-24T11:38:09.199Z,26.80
2018-08-24T11:42:52.887Z,26.80
2018-08-24T11:47:36.563Z,27.10
2018-08-24T11:52:21.564Z,27.30
2018-08-24T11:57:05.440Z,28.00
2018-08-24T12:01:49.095Z,28.20
2018-08-24T12:06:32.787Z,27.90
2018-08-24T12:11:16.721Z,26.40
2018-08-24T12:16:00.534Z,25.70
2018-08-24T12:20:44.282Z,26.10
2018-08-24T12:25:27.961Z,26.10
2018-08-24T12:30:11.645Z,25.80
2018-08-24T12:34:55.363Z,25.60
2018-08-24T12:39:39.676Z,25.60
2018-08-24T12:44:23.620Z,26.00
2018-08-24T12:49:07.628Z,27.20
2018-08-24T12:53:51.287Z,28.00
2018-08-24T12:58:35.009Z,27.80
2018-08-24T13:03:18.720Z,28.10
2018-08-24T13:08:02.517Z,27.50
2018-08-24T13:12:48.152Z,27.20
2018-08-24T13:17:31.757Z,27.20
2018-08-24T13:22:15.472Z,26.90
2018-08-24T13:26:59.114Z,26.40
2018-08-24T13:31:42.844Z,26.10
2018-08-24T13:36:26.559Z,26.60
2018-08-24T13:41:10.362Z,26.60
2018-08-24T13:45:54.157Z,26.50
2018-08-24T13:50:37.909Z,26.00
2018-08-24T13:55:21.640Z,26.30
2018-08-24T14:00:05.672Z,26.70
2018-08-24T14:04:49.343Z,26.40
2018-08-24T14:09:33.302Z,26.10
2018-08-24T14:14:17.024Z,25.60
2018-08-24T14:19:00.738Z,25.40
2018-08-24T14:23:44.426Z,25.00
2018-08-24T14:28:28.144Z,24.20
2018-08-24T14:33:11.838Z,23.40
2018-08-24T14:37:55.682Z,23.10
2018-08-24T14:42:39.399Z,22.80
2018-08-24T14:47:23.085Z,22.70
2018-08-24T14:52:06.992Z,22.70
2018-08-24T14:56:50.777Z,22.70
2018-08-24T15:01:34.389Z,22.60
2018-08-24T15:06:18.153Z,22.40
2018-08-24T15:11:01.797Z,22.40
2018-08-24T15:15:45.637Z,22.50
2018-08-24T15:20:29.457Z,22.40
2018-08-24T15:25:13.293Z,22.30
2018-08-24T15:29:57.096Z,22.00
2018-08-24T15:34:40.913Z,22.00
2018-08-24T15:39:24.814Z,22.00
2018-08-24T15:44:08.947Z,22.10
2018-08-24T15:48:52.649Z,22.10
2018-08-24T15:53:36.360Z,22.20
2018-08-24T15:58:20.128Z,22.00
2018-08-24T16:03:03.833Z,21.50
2018-08-24T16:07:47.756Z,21.20
2018-08-24T16:12:31.744Z,20.90
2018-08-24T16:17:15.730Z,20.80
2018-08-24T16:21:59.645Z,20.80
2018-08-24T16:26:43.412Z,20.40
2018-08-24T16:31:27.234Z,20.00
2018-08-24T16:36:10.945Z,19.70
2018-08-24T16:40:54.695Z,19.50
2018-08-24T16:45:38.437Z,19.20
2018-08-24T16:50:22.261Z,18.80
2018-08-24T16:55:06.211Z,18.40
2018-08-24T16:59:50.129Z,18.20
2018-08-24T17:04:33.835Z,18.00
2018-08-24T17:09:17.580Z,17.80
2018-08-24T17:14:01.401Z,17.80
2018-08-24T17:18:45.129Z,17.70
2018-08-24T17:23:28.933Z,17.60
2018-08-24T17:28:12.708Z,17.60
2018-08-24T17:32:56.598Z,17.70
2018-08-24T17:37:40.393Z,17.80
2018-08-24T17:42:24.219Z,17.70
2018-08-24T17:47:08.223Z,17.80
2018-08-24T17:51:52.626Z,17.50
2018-08-24T17:56:37.236Z,17.40
2018-08-24T18:01:21.422Z,17.40
2018-08-24T18:06:05.902Z,17.30
2018-08-24T18:10:49.997Z,17.40
2018-08-24T18:15:47.813Z,17.40
2018-08-24T18:20:31.839Z,17.40
2018-08-24T18:25:15.834Z,17.40
2018-08-24T18:30:00.052Z,17.40
2018-08-24T18:34:44.098Z,17.40
2018-08-24T18:39:30.762Z,17.50
2018-08-24T18:50:13.738Z,17.50
2018-08-24T18:54:58.159Z,17.50
2018-08-24T18:59:41.858Z,17.50
2018-08-24T19:04:26.409Z,17.50
2018-08-24T19:09:11.013Z,17.40
2018-08-24T19:13:55.165Z,17.30
2018-08-24T19:18:44.348Z,17.20
2018-08-24T19:23:28.037Z,17.00
2018-08-24T19:28:17.100Z,16.90
2018-08-24T19:33:00.782Z,16.80
2018-08-24T19:37:44.602Z,16.60
2018-08-24T19:42:28.320Z,16.50
2018-08-24T19:47:17.245Z,16.40
2018-08-24T19:52:01.097Z,16.40
2018-08-24T19:56:44.935Z,16.40
2018-08-24T20:01:28.659Z,16.50
2018-08-24T20:06:17.656Z,16.50
2018-08-24T20:11:01.476Z,16.40
2018-08-24T20:15:50.572Z,16.40
2018-08-24T20:20:34.403Z,16.40
2018-08-24T20:25:18.350Z,16.20
2018-08-24T20:30:02.071Z,16.10
2018-08-24T20:34:46.795Z,16.00
2018-08-24T20:39:30.431Z,16.00
2018-08-24T20:44:14.257Z,15.90
2018-08-24T20:48:58.091Z,15.90
2018-08-24T20:53:41.813Z,16.00
2018-08-24T20:58:25.738Z,16.00
2018-08-24T21:03:09.517Z,16.10
2018-08-24T21:07:53.167Z,16.00
2018-08-24T21:12:37.060Z,16.10
2018-08-24T21:17:22.201Z,16.00
2018-08-24T21:22:06.476Z,16.00
2018-08-24T21:26:50.313Z,15.90
2018-08-24T21:31:33.995Z,16.00
2018-08-24T21:36:17.799Z,16.10
2018-08-24T21:41:01.477Z,16.20
2018-08-24T21:45:45.222Z,16.20
2018-08-24T21:50:29.030Z,16.20
2018-08-24T21:55:12.849Z,16.20
2018-08-24T21:59:56.581Z,16.10
2018-08-24T22:04:40.426Z,16.00
2018-08-24T22:09:24.163Z,15.90
2018-08-24T22:14:08.005Z,15.90
2018-08-24T22:18:51.639Z,15.90
2018-08-24T22:23:35.393Z,15.90
2018-08-24T22:28:19.331Z,15.90
2018-08-24T22:33:03.117Z,15.90
2018-08-24T22:37:46.993Z,15.90
2018-08-24T22:42:30.783Z,15.90
2018-08-24T22:47:14.489Z,15.90
2018-08-24T22:51:58.307Z,15.90
2018-08-24T22:56:42.143Z,15.90
2018-08-24T23:01:25.901Z,15.90
2018-08-24T23:06:09.696Z,15.80
2018-08-24T23:10:53.381Z,15.80
2018-08-24T23:15:37.019Z,15.80
2018-08-24T23:20:20.623Z,15.70
2018-08-24T23:25:04.340Z,15.70
2018-08-24T23:29:48.021Z,15.70
2018-08-24T23:34:31.683Z,15.50
2018-08-24T23:39:15.383Z,15.30
2018-08-24T23:43:59.146Z,15.20
2018-08-24T23:48:42.868Z,15.10
2018-08-24T23:53:26.727Z,15.00
2018-08-24T23:58:10.415Z,14.90
